sensor_id;sensor_type;location;lat;lon;timestamp;temperature;humidity
27619;DHT22;15039;50.830;4.730;2023-06-24T00:02:10;20.30;99.90
27619;DHT22;15039;50.830;4.730;2023-06-24T00:04:36;20.30;99.90
27619;DHT22;15039;50.830;4.730;2023-06-24T00:07:01;20.20;99.90
27619;DHT22;15039;50.830;4.730;2023-06-24T00:09:30;20.20;99.90
27619;DHT22;15039;50.830;4.730;2023-06-24T00:11:57;20.10;99.90
27619;DHT22;15039;50.830;4.730;2023-06-24T00:14:24;20.10;99.90
27619;DHT22;15039;50.830;4.730;2023-06-24T00:16:52;20.00;99.90
27619;DHT22;15039;50.830;4.730;2023-06-24T00:19:23;19.90;99.90
27619;DHT22;15039;50.830;4.730;2023-06-24T00:21:49;20.00;99.90
27619;DHT22;15039;50.830;4.730;2023-06-24T00:24:22;19.90;99.90
27619;DHT22;15039;50.830;4.730;2023-06-24T00:26:51;19.90;99.90
27619;DHT22;15039;50.830;4.730;2023-06-24T00:29:19;19.80;99.90
27619;DHT22;15039;50.830;4.730;2023-06-24T00:31:45;19.50;99.90
27619;DHT22;15039;50.830;4.730;2023-06-24T00:34:10;19.40;99.90
27619;DHT22;15039;50.830;4.730;2023-06-24T00:36:36;19.40;99.90
27619;DHT22;15039;50.830;4.730;2023-06-24T00:39:06;19.30;99.90
27619;DHT22;15039;50.830;4.730;2023-06-24T00:41:36;19.30;99.90
27619;DHT22;15039;50.830;4.730;2023-06-24T00:44:01;19.30;99.90
27619;DHT22;15039;50.830;4.730;2023-06-24T00:46:28;19.30;99.90
27619;DHT22;15039;50.830;4.730;2023-06-24T00:48:58;19.30;99.90
27619;DHT22;15039;50.830;4.730;2023-06-24T00:51:24;19.30;99.90
27619;DHT22;15039;50.830;4.730;2023-06-24T00:53:56;19.20;99.90
27619;DHT22;15039;50.830;4.730;2023-06-24T00:56:23;19.20;99.90
27619;DHT22;15039;50.830;4.730;2023-06-24T00:58:50;19.00;99.90
27619;DHT22;15039;50.830;4.730;2023-06-24T01:01:17;19.00;99.90
27619;DHT22;15039;50.830;4.730;2023-06-24T01:03:45;19.00;99.90
27619;DHT22;15039;50.830;4.730;2023-06-24T01:06:12;19.00;99.90
27619;DHT22;15039;50.830;4.730;2023-06-24T01:08:38;19.00;99.90
27619;DHT22;15039;50.830;4.730;2023-06-24T01:11:05;19.00;99.90
27619;DHT22;15039;50.830;4.730;2023-06-24T01:13:30;19.00;99.90
27619;DHT22;15039;50.830;4.730;2023-06-24T01:16:00;19.00;99.90
27619;DHT22;15039;50.830;4.730;2023-06-24T01:18:55;18.90;99.90
27619;DHT22;15039;50.830;4.730;2023-06-24T01:22:04;19.00;99.90
27619;DHT22;15039;50.830;4.730;2023-06-24T01:32:43;18.60;99.90
27619;DHT22;15039;50.830;4.730;2023-06-24T01:35:19;18.50;99.90
27619;DHT22;15039;50.830;4.730;2023-06-24T01:37:48;18.40;99.90
27619;DHT22;15039;50.830;4.730;2023-06-24T01:40:34;18.50;99.90
27619;DHT22;15039;50.830;4.730;2023-06-24T01:43:03;18.40;99.90
27619;DHT22;15039;50.830;4.730;2023-06-24T01:45:36;18.40;99.90
27619;DHT22;15039;50.830;4.730;2023-06-24T01:48:11;18.30;99.90
27619;DHT22;15039;50.830;4.730;2023-06-24T01:50:40;18.40;99.90
27619;DHT22;15039;50.830;4.730;2023-06-24T01:53:08;18.30;99.90
27619;DHT22;15039;50.830;4.730;2023-06-24T01:55:36;18.30;99.90
27619;DHT22;15039;50.830;4.730;2023-06-24T01:58:05;18.30;99.90
27619;DHT22;15039;50.830;4.730;2023-06-24T02:00:33;18.20;99.90
27619;DHT22;15039;50.830;4.730;2023-06-24T02:03:00;18.10;99.90
27619;DHT22;15039;50.830;4.730;2023-06-24T02:05:27;18.00;99.90
27619;DHT22;15039;50.830;4.730;2023-06-24T02:07:54;18.00;99.90
27619;DHT22;15039;50.830;4.730;2023-06-24T02:10:20;18.00;99.90
27619;DHT22;15039;50.830;4.730;2023-06-24T02:12:49;18.00;99.90
27619;DHT22;15039;50.830;4.730;2023-06-24T02:15:16;17.90;99.90
27619;DHT22;15039;50.830;4.730;2023-06-24T02:17:44;17.90;99.90
27619;DHT22;15039;50.830;4.730;2023-06-24T02:20:11;18.00;99.90
27619;DHT22;15039;50.830;4.730;2023-06-24T02:22:40;17.90;99.90
27619;DHT22;15039;50.830;4.730;2023-06-24T02:25:06;17.70;99.90
27619;DHT22;15039;50.830;4.730;2023-06-24T02:27:35;17.70;99.90
27619;DHT22;15039;50.830;4.730;2023-06-24T02:30:03;17.60;99.90
27619;DHT22;15039;50.830;4.730;2023-06-24T02:32:29;17.60;99.90
27619;DHT22;15039;50.830;4.730;2023-06-24T02:34:57;17.50;99.90
27619;DHT22;15039;50.830;4.730;2023-06-24T02:37:24;17.50;99.90
27619;DHT22;15039;50.830;4.730;2023-06-24T02:39:49;17.50;99.90
27619;DHT22;15039;50.830;4.730;2023-06-24T02:42:15;17.40;99.90
27619;DHT22;15039;50.830;4.730;2023-06-24T02:44:41;17.40;99.90
27619;DHT22;15039;50.830;4.730;2023-06-24T02:47:09;17.30;99.90
27619;DHT22;15039;50.830;4.730;2023-06-24T02:49:37;17.30;99.90
27619;DHT22;15039;50.830;4.730;2023-06-24T02:52:04;17.20;99.90
27619;DHT22;15039;50.830;4.730;2023-06-24T02:54:30;17.20;99.90
27619;DHT22;15039;50.830;4.730;2023-06-24T02:56:56;17.20;99.90
27619;DHT22;15039;50.830;4.730;2023-06-24T02:59:23;17.10;99.90
27619;DHT22;15039;50.830;4.730;2023-06-24T03:01:53;17.10;99.90
27619;DHT22;15039;50.830;4.730;2023-06-24T03:04:20;17.10;99.90
27619;DHT22;15039;50.830;4.730;2023-06-24T03:06:46;17.10;99.90
27619;DHT22;15039;50.830;4.730;2023-06-24T03:09:14;17.00;99.90
27619;DHT22;15039;50.830;4.730;2023-06-24T03:11:42;17.10;99.90
27619;DHT22;15039;50.830;4.730;2023-06-24T03:14:08;17.10;99.90
27619;DHT22;15039;50.830;4.730;2023-06-24T03:16:34;17.00;99.90
27619;DHT22;15039;50.830;4.730;2023-06-24T03:19:00;16.90;99.90
27619;DHT22;15039;50.830;4.730;2023-06-24T03:21:25;16.90;99.90
27619;DHT22;15039;50.830;4.730;2023-06-24T03:23:54;16.90;99.90
27619;DHT22;15039;50.830;4.730;2023-06-24T03:26:19;16.90;99.90
27619;DHT22;15039;50.830;4.730;2023-06-24T03:28:45;16.90;99.90
27619;DHT22;15039;50.830;4.730;2023-06-24T03:31:11;16.90;99.90
27619;DHT22;15039;50.830;4.730;2023-06-24T03:33:39;16.80;99.90
27619;DHT22;15039;50.830;4.730;2023-06-24T03:36:10;16.80;99.90
27619;DHT22;15039;50.830;4.730;2023-06-24T03:38:35;16.80;99.90
27619;DHT22;15039;50.830;4.730;2023-06-24T03:41:01;16.80;99.90
27619;DHT22;15039;50.830;4.730;2023-06-24T03:43:27;16.80;99.90
27619;DHT22;15039;50.830;4.730;2023-06-24T03:45:53;16.80;99.90
27619;DHT22;15039;50.830;4.730;2023-06-24T03:48:18;16.80;99.90
27619;DHT22;15039;50.830;4.730;2023-06-24T03:50:44;16.80;99.90
27619;DHT22;15039;50.830;4.730;2023-06-24T03:53:10;16.70;99.90
27619;DHT22;15039;50.830;4.730;2023-06-24T03:55:35;16.70;99.90
27619;DHT22;15039;50.830;4.730;2023-06-24T03:58:01;16.80;99.90
27619;DHT22;15039;50.830;4.730;2023-06-24T04:00:26;16.80;99.90
27619;DHT22;15039;50.830;4.730;2023-06-24T04:02:52;16.80;99.90
27619;DHT22;15039;50.830;4.730;2023-06-24T04:05:19;16.80;99.90
27619;DHT22;15039;50.830;4.730;2023-06-24T04:07:45;16.80;99.90
27619;DHT22;15039;50.830;4.730;2023-06-24T04:10:16;16.80;99.90
27619;DHT22;15039;50.830;4.730;2023-06-24T04:12:42;16.80;99.90
27619;DHT22;15039;50.830;4.730;2023-06-24T04:15:11;16.90;99.90
27619;DHT22;15039;50.830;4.730;2023-06-24T04:17:36;16.90;99.90
27619;DHT22;15039;50.830;4.730;2023-06-24T04:20:03;16.90;99.90
27619;DHT22;15039;50.830;4.730;2023-06-24T04:22:32;16.90;99.90
27619;DHT22;15039;50.830;4.730;2023-06-24T04:24:58;17.00;99.90
27619;DHT22;15039;50.830;4.730;2023-06-24T04:27:24;16.90;99.90
27619;DHT22;15039;50.830;4.730;2023-06-24T04:29:50;16.90;99.90
27619;DHT22;15039;50.830;4.730;2023-06-24T04:32:17;17.00;99.90
27619;DHT22;15039;50.830;4.730;2023-06-24T04:34:43;17.10;99.90
27619;DHT22;15039;50.830;4.730;2023-06-24T04:37:10;17.00;99.90
27619;DHT22;15039;50.830;4.730;2023-06-24T04:39:38;17.00;99.90
27619;DHT22;15039;50.830;4.730;2023-06-24T04:42:06;17.00;99.90
27619;DHT22;15039;50.830;4.730;2023-06-24T04:44:31;17.10;99.90
27619;DHT22;15039;50.830;4.730;2023-06-24T04:46:57;17.20;99.90
27619;DHT22;15039;50.830;4.730;2023-06-24T04:49:22;17.20;99.90
27619;DHT22;15039;50.830;4.730;2023-06-24T04:51:51;17.30;99.90
27619;DHT22;15039;50.830;4.730;2023-06-24T04:54:20;17.20;99.90
27619;DHT22;15039;50.830;4.730;2023-06-24T04:56:47;17.20;99.90
27619;DHT22;15039;50.830;4.730;2023-06-24T04:59:15;17.30;99.90
27619;DHT22;15039;50.830;4.730;2023-06-24T05:01:40;17.30;99.90
27619;DHT22;15039;50.830;4.730;2023-06-24T05:04:06;17.40;99.90
27619;DHT22;15039;50.830;4.730;2023-06-24T05:06:32;17.40;99.90
27619;DHT22;15039;50.830;4.730;2023-06-24T05:08:57;17.50;99.90
27619;DHT22;15039;50.830;4.730;2023-06-24T05:11:23;17.50;99.90
27619;DHT22;15039;50.830;4.730;2023-06-24T05:13:50;17.60;99.90
27619;DHT22;15039;50.830;4.730;2023-06-24T05:16:16;17.60;99.90
27619;DHT22;15039;50.830;4.730;2023-06-24T05:18:43;17.70;99.90
27619;DHT22;15039;50.830;4.730;2023-06-24T05:21:09;17.70;99.90
27619;DHT22;15039;50.830;4.730;2023-06-24T05:23:35;17.80;99.90
27619;DHT22;15039;50.830;4.730;2023-06-24T05:26:01;17.80;99.90
27619;DHT22;15039;50.830;4.730;2023-06-24T05:28:27;17.80;99.90
27619;DHT22;15039;50.830;4.730;2023-06-24T05:30:53;17.90;99.90
27619;DHT22;15039;50.830;4.730;2023-06-24T05:33:19;18.00;99.90
27619;DHT22;15039;50.830;4.730;2023-06-24T05:35:44;18.00;99.90
27619;DHT22;15039;50.830;4.730;2023-06-24T05:38:11;18.20;99.90
27619;DHT22;15039;50.830;4.730;2023-06-24T05:40:37;18.20;99.90
27619;DHT22;15039;50.830;4.730;2023-06-24T05:43:02;18.30;99.90
27619;DHT22;15039;50.830;4.730;2023-06-24T05:45:28;18.40;99.90
27619;DHT22;15039;50.830;4.730;2023-06-24T05:47:54;18.40;99.90
27619;DHT22;15039;50.830;4.730;2023-06-24T05:50:19;18.60;99.90
27619;DHT22;15039;50.830;4.730;2023-06-24T05:52:45;18.60;99.90
27619;DHT22;15039;50.830;4.730;2023-06-24T05:55:11;18.60;99.90
27619;DHT22;15039;50.830;4.730;2023-06-24T05:57:40;18.80;99.90
27619;DHT22;15039;50.830;4.730;2023-06-24T06:00:06;19.00;99.90
27619;DHT22;15039;50.830;4.730;2023-06-24T06:02:32;19.30;99.90
27619;DHT22;15039;50.830;4.730;2023-06-24T06:04:58;19.70;99.90
27619;DHT22;15039;50.830;4.730;2023-06-24T06:07:23;20.20;99.90
27619;DHT22;15039;50.830;4.730;2023-06-24T06:09:49;20.70;99.90
27619;DHT22;15039;50.830;4.730;2023-06-24T06:12:15;21.10;99.90
27619;DHT22;15039;50.830;4.730;2023-06-24T06:14:40;21.50;99.90
27619;DHT22;15039;50.830;4.730;2023-06-24T06:17:06;21.90;99.90
27619;DHT22;15039;50.830;4.730;2023-06-24T06:19:31;22.30;99.90
27619;DHT22;15039;50.830;4.730;2023-06-24T06:21:57;22.60;99.90
27619;DHT22;15039;50.830;4.730;2023-06-24T06:24:23;22.70;99.90
27619;DHT22;15039;50.830;4.730;2023-06-24T06:26:48;22.80;99.90
27619;DHT22;15039;50.830;4.730;2023-06-24T06:29:14;22.80;99.90
27619;DHT22;15039;50.830;4.730;2023-06-24T06:31:41;22.80;99.90
27619;DHT22;15039;50.830;4.730;2023-06-24T06:34:06;22.80;99.90
27619;DHT22;15039;50.830;4.730;2023-06-24T06:36:32;23.00;99.90
27619;DHT22;15039;50.830;4.730;2023-06-24T06:38:59;23.10;99.90
27619;DHT22;15039;50.830;4.730;2023-06-24T06:41:25;23.10;99.90
27619;DHT22;15039;50.830;4.730;2023-06-24T06:43:52;22.90;99.90
27619;DHT22;15039;50.830;4.730;2023-06-24T06:46:17;22.80;99.90
27619;DHT22;15039;50.830;4.730;2023-06-24T06:48:43;22.30;99.90
27619;DHT22;15039;50.830;4.730;2023-06-24T06:51:08;22.10;99.90
27619;DHT22;15039;50.830;4.730;2023-06-24T06:53:34;22.20;99.90
27619;DHT22;15039;50.830;4.730;2023-06-24T06:56:00;22.10;99.90
27619;DHT22;15039;50.830;4.730;2023-06-24T06:58:26;22.00;99.90
27619;DHT22;15039;50.830;4.730;2023-06-24T07:00:51;21.80;99.90
27619;DHT22;15039;50.830;4.730;2023-06-24T07:03:17;21.50;99.90
27619;DHT22;15039;50.830;4.730;2023-06-24T07:05:43;21.40;99.90
27619;DHT22;15039;50.830;4.730;2023-06-24T07:08:08;21.30;99.90
27619;DHT22;15039;50.830;4.730;2023-06-24T07:10:34;21.00;99.90
27619;DHT22;15039;50.830;4.730;2023-06-24T07:13:00;21.00;99.90
27619;DHT22;15039;50.830;4.730;2023-06-24T07:15:27;21.00;99.90
27619;DHT22;15039;50.830;4.730;2023-06-24T07:17:53;21.00;99.90
27619;DHT22;15039;50.830;4.730;2023-06-24T07:20:20;21.00;99.90
27619;DHT22;15039;50.830;4.730;2023-06-24T07:22:46;20.90;99.90
27619;DHT22;15039;50.830;4.730;2023-06-24T07:25:12;20.90;99.90
27619;DHT22;15039;50.830;4.730;2023-06-24T07:27:38;21.00;99.90
27619;DHT22;15039;50.830;4.730;2023-06-24T07:30:05;21.10;99.90
27619;DHT22;15039;50.830;4.730;2023-06-24T07:32:31;21.20;99.90
27619;DHT22;15039;50.830;4.730;2023-06-24T07:34:57;21.10;99.90
27619;DHT22;15039;50.830;4.730;2023-06-24T07:37:31;21.10;99.90
27619;DHT22;15039;50.830;4.730;2023-06-24T07:39:58;21.20;99.90
27619;DHT22;15039;50.830;4.730;2023-06-24T07:42:24;21.30;99.90
27619;DHT22;15039;50.830;4.730;2023-06-24T07:44:51;21.40;99.90
27619;DHT22;15039;50.830;4.730;2023-06-24T07:47:17;21.40;99.90
27619;DHT22;15039;50.830;4.730;2023-06-24T07:49:44;21.40;99.90
27619;DHT22;15039;50.830;4.730;2023-06-24T07:52:10;21.60;99.90
27619;DHT22;15039;50.830;4.730;2023-06-24T07:54:35;21.70;99.90
27619;DHT22;15039;50.830;4.730;2023-06-24T07:57:01;21.80;99.90
27619;DHT22;15039;50.830;4.730;2023-06-24T07:59:28;22.00;99.90
27619;DHT22;15039;50.830;4.730;2023-06-24T08:01:54;22.00;99.90
27619;DHT22;15039;50.830;4.730;2023-06-24T08:04:20;22.10;99.90
27619;DHT22;15039;50.830;4.730;2023-06-24T08:06:45;22.10;99.90
27619;DHT22;15039;50.830;4.730;2023-06-24T08:09:11;22.10;99.90
27619;DHT22;15039;50.830;4.730;2023-06-24T08:11:37;22.20;99.90
27619;DHT22;15039;50.830;4.730;2023-06-24T08:14:04;22.30;99.90
27619;DHT22;15039;50.830;4.730;2023-06-24T08:16:30;22.40;99.90
27619;DHT22;15039;50.830;4.730;2023-06-24T08:18:55;22.40;99.90
27619;DHT22;15039;50.830;4.730;2023-06-24T08:21:21;22.50;99.90
27619;DHT22;15039;50.830;4.730;2023-06-24T08:23:46;22.50;99.90
27619;DHT22;15039;50.830;4.730;2023-06-24T08:26:13;22.50;99.90
27619;DHT22;15039;50.830;4.730;2023-06-24T08:28:39;22.50;99.90
27619;DHT22;15039;50.830;4.730;2023-06-24T08:31:23;22.50;99.90
27619;DHT22;15039;50.830;4.730;2023-06-24T08:33:53;22.60;99.90
27619;DHT22;15039;50.830;4.730;2023-06-24T08:36:21;22.70;99.90
27619;DHT22;15039;50.830;4.730;2023-06-24T08:38:47;22.80;99.90
27619;DHT22;15039;50.830;4.730;2023-06-24T08:41:13;23.00;99.90
27619;DHT22;15039;50.830;4.730;2023-06-24T08:43:38;23.00;99.90
27619;DHT22;15039;50.830;4.730;2023-06-24T08:46:05;23.00;99.90
27619;DHT22;15039;50.830;4.730;2023-06-24T08:48:31;23.10;99.90
27619;DHT22;15039;50.830;4.730;2023-06-24T08:50:59;23.10;99.90
27619;DHT22;15039;50.830;4.730;2023-06-24T08:53:27;23.40;99.90
27619;DHT22;15039;50.830;4.730;2023-06-24T08:55:56;23.50;99.90
27619;DHT22;15039;50.830;4.730;2023-06-24T08:58:23;23.50;99.90
27619;DHT22;15039;50.830;4.730;2023-06-24T09:00:48;23.70;99.90
27619;DHT22;15039;50.830;4.730;2023-06-24T09:03:14;23.80;99.90
27619;DHT22;15039;50.830;4.730;2023-06-24T09:05:40;23.80;99.90
27619;DHT22;15039;50.830;4.730;2023-06-24T09:08:05;24.00;99.90
27619;DHT22;15039;50.830;4.730;2023-06-24T09:10:36;24.20;99.90
27619;DHT22;15039;50.830;4.730;2023-06-24T09:13:03;24.30;99.90
27619;DHT22;15039;50.830;4.730;2023-06-24T09:17:58;24.50;99.90
27619;DHT22;15039;50.830;4.730;2023-06-24T09:20:28;24.50;99.90
27619;DHT22;15039;50.830;4.730;2023-06-24T09:22:59;24.50;99.90
27619;DHT22;15039;50.830;4.730;2023-06-24T09:25:26;24.70;99.90
27619;DHT22;15039;50.830;4.730;2023-06-24T09:27:52;24.80;99.90
27619;DHT22;15039;50.830;4.730;2023-06-24T09:32:50;24.70;99.90
27619;DHT22;15039;50.830;4.730;2023-06-24T09:35:19;24.80;99.90
27619;DHT22;15039;50.830;4.730;2023-06-24T09:37:56;24.90;99.90
27619;DHT22;15039;50.830;4.730;2023-06-24T09:40:23;24.70;99.90
27619;DHT22;15039;50.830;4.730;2023-06-24T09:42:53;24.80;99.90
27619;DHT22;15039;50.830;4.730;2023-06-24T09:45:29;24.80;99.90
27619;DHT22;15039;50.830;4.730;2023-06-24T09:47:55;24.90;99.90
27619;DHT22;15039;50.830;4.730;2023-06-24T09:50:22;24.80;99.90
27619;DHT22;15039;50.830;4.730;2023-06-24T09:52:49;25.00;98.80
27619;DHT22;15039;50.830;4.730;2023-06-24T09:55:16;25.10;99.80
27619;DHT22;15039;50.830;4.730;2023-06-24T09:57:45;25.10;99.90
27619;DHT22;15039;50.830;4.730;2023-06-24T10:00:14;25.30;99.90
27619;DHT22;15039;50.830;4.730;2023-06-24T10:02:42;25.40;99.90
27619;DHT22;15039;50.830;4.730;2023-06-24T10:05:08;25.50;98.50
27619;DHT22;15039;50.830;4.730;2023-06-24T10:07:34;25.40;98.40
27619;DHT22;15039;50.830;4.730;2023-06-24T10:10:03;25.30;99.90
27619;DHT22;15039;50.830;4.730;2023-06-24T10:12:29;25.40;98.70
27619;DHT22;15039;50.830;4.730;2023-06-24T10:14:55;25.40;99.20
27619;DHT22;15039;50.830;4.730;2023-06-24T10:17:21;25.50;97.50
27619;DHT22;15039;50.830;4.730;2023-06-24T10:19:46;25.70;96.70
27619;DHT22;15039;50.830;4.730;2023-06-24T10:22:12;25.60;97.40
27619;DHT22;15039;50.830;4.730;2023-06-24T10:24:41;25.80;97.80
27619;DHT22;15039;50.830;4.730;2023-06-24T10:27:13;25.80;96.60
27619;DHT22;15039;50.830;4.730;2023-06-24T10:29:45;25.80;96.90
27619;DHT22;15039;50.830;4.730;2023-06-24T10:32:10;25.80;97.40
27619;DHT22;15039;50.830;4.730;2023-06-24T10:34:41;25.90;97.00
27619;DHT22;15039;50.830;4.730;2023-06-24T10:39:55;26.00;96.10
27619;DHT22;15039;50.830;4.730;2023-06-24T10:47:40;26.10;97.40
27619;DHT22;15039;50.830;4.730;2023-06-24T10:50:08;26.20;97.10
27619;DHT22;15039;50.830;4.730;2023-06-24T10:52:42;26.10;95.70
27619;DHT22;15039;50.830;4.730;2023-06-24T10:55:08;26.10;96.80
27619;DHT22;15039;50.830;4.730;2023-06-24T10:57:34;26.00;96.10
27619;DHT22;15039;50.830;4.730;2023-06-24T11:00:01;26.00;96.30
27619;DHT22;15039;50.830;4.730;2023-06-24T11:02:28;26.10;96.50
27619;DHT22;15039;50.830;4.730;2023-06-24T11:04:56;26.00;97.00
27619;DHT22;15039;50.830;4.730;2023-06-24T11:07:34;26.20;97.40
27619;DHT22;15039;50.830;4.730;2023-06-24T11:10:15;26.50;97.00
27619;DHT22;15039;50.830;4.730;2023-06-24T11:12:42;26.70;97.00
27619;DHT22;15039;50.830;4.730;2023-06-24T11:15:10;26.70;96.40
27619;DHT22;15039;50.830;4.730;2023-06-24T11:17:37;26.60;95.90
27619;DHT22;15039;50.830;4.730;2023-06-24T11:20:11;26.70;96.50
27619;DHT22;15039;50.830;4.730;2023-06-24T11:22:37;26.60;96.00
27619;DHT22;15039;50.830;4.730;2023-06-24T11:25:04;26.50;97.10
27619;DHT22;15039;50.830;4.730;2023-06-24T11:27:31;26.70;96.30
27619;DHT22;15039;50.830;4.730;2023-06-24T11:30:00;26.70;96.50
27619;DHT22;15039;50.830;4.730;2023-06-24T11:32:40;26.80;95.50
27619;DHT22;15039;50.830;4.730;2023-06-24T11:35:08;26.80;95.60
27619;DHT22;15039;50.830;4.730;2023-06-24T11:37:34;26.80;95.40
27619;DHT22;15039;50.830;4.730;2023-06-24T11:40:04;26.80;95.30
27619;DHT22;15039;50.830;4.730;2023-06-24T11:42:31;26.70;95.50
27619;DHT22;15039;50.830;4.730;2023-06-24T11:45:01;26.60;95.00
27619;DHT22;15039;50.830;4.730;2023-06-24T11:47:31;26.60;94.80
27619;DHT22;15039;50.830;4.730;2023-06-24T11:49:58;26.70;94.80
27619;DHT22;15039;50.830;4.730;2023-06-24T11:55:02;26.70;96.00
27619;DHT22;15039;50.830;4.730;2023-06-24T12:00:14;26.80;95.00
27619;DHT22;15039;50.830;4.730;2023-06-24T12:02:40;26.70;96.10
27619;DHT22;15039;50.830;4.730;2023-06-24T12:05:06;26.80;96.20
27619;DHT22;15039;50.830;4.730;2023-06-24T12:07:31;27.00;95.20
27619;DHT22;15039;50.830;4.730;2023-06-24T12:09:57;27.20;94.20
27619;DHT22;15039;50.830;4.730;2023-06-24T12:12:23;27.20;93.60
27619;DHT22;15039;50.830;4.730;2023-06-24T12:14:48;27.20;93.80
27619;DHT22;15039;50.830;4.730;2023-06-24T12:17:14;27.30;94.60
27619;DHT22;15039;50.830;4.730;2023-06-24T12:19:40;27.30;93.60
27619;DHT22;15039;50.830;4.730;2023-06-24T12:22:05;27.40;93.40
27619;DHT22;15039;50.830;4.730;2023-06-24T12:24:31;27.60;94.40
27619;DHT22;15039;50.830;4.730;2023-06-24T12:26:57;27.60;92.20
27619;DHT22;15039;50.830;4.730;2023-06-24T12:29:23;27.50;92.00
27619;DHT22;15039;50.830;4.730;2023-06-24T12:31:48;27.40;93.80
27619;DHT22;15039;50.830;4.730;2023-06-24T12:34:15;27.50;93.80
27619;DHT22;15039;50.830;4.730;2023-06-24T12:36:41;27.40;92.40
27619;DHT22;15039;50.830;4.730;2023-06-24T12:39:07;27.40;93.40
27619;DHT22;15039;50.830;4.730;2023-06-24T12:41:32;27.70;93.00
27619;DHT22;15039;50.830;4.730;2023-06-24T12:43:58;27.80;92.70
27619;DHT22;15039;50.830;4.730;2023-06-24T12:46:24;27.90;94.10
27619;DHT22;15039;50.830;4.730;2023-06-24T12:48:50;28.00;93.30
27619;DHT22;15039;50.830;4.730;2023-06-24T12:51:15;28.00;93.10
27619;DHT22;15039;50.830;4.730;2023-06-24T12:53:41;27.80;92.70
27619;DHT22;15039;50.830;4.730;2023-06-24T12:56:06;27.80;93.20
27619;DHT22;15039;50.830;4.730;2023-06-24T12:58:34;28.00;93.20
27619;DHT22;15039;50.830;4.730;2023-06-24T13:00:59;27.90;93.50
27619;DHT22;15039;50.830;4.730;2023-06-24T13:03:25;27.90;92.40
27619;DHT22;15039;50.830;4.730;2023-06-24T13:05:51;27.80;93.40
27619;DHT22;15039;50.830;4.730;2023-06-24T13:08:16;27.80;92.50
27619;DHT22;15039;50.830;4.730;2023-06-24T13:10:42;27.80;92.70
27619;DHT22;15039;50.830;4.730;2023-06-24T13:13:08;27.70;92.90
27619;DHT22;15039;50.830;4.730;2023-06-24T13:15:33;27.80;93.50
27619;DHT22;15039;50.830;4.730;2023-06-24T13:17:59;27.90;93.00
27619;DHT22;15039;50.830;4.730;2023-06-24T13:20:26;28.00;92.60
27619;DHT22;15039;50.830;4.730;2023-06-24T13:22:52;28.10;92.80
27619;DHT22;15039;50.830;4.730;2023-06-24T13:25:18;28.10;92.20
27619;DHT22;15039;50.830;4.730;2023-06-24T13:27:44;27.90;92.30
27619;DHT22;15039;50.830;4.730;2023-06-24T13:30:10;27.80;92.10
27619;DHT22;15039;50.830;4.730;2023-06-24T13:32:36;27.70;92.20
27619;DHT22;15039;50.830;4.730;2023-06-24T13:35:03;27.60;92.10
27619;DHT22;15039;50.830;4.730;2023-06-24T13:37:28;27.60;92.80
27619;DHT22;15039;50.830;4.730;2023-06-24T13:39:55;27.60;92.30
27619;DHT22;15039;50.830;4.730;2023-06-24T13:42:21;27.50;92.30
27619;DHT22;15039;50.830;4.730;2023-06-24T13:44:46;27.80;92.60
27619;DHT22;15039;50.830;4.730;2023-06-24T13:47:12;27.90;92.00
27619;DHT22;15039;50.830;4.730;2023-06-24T13:49:38;27.90;91.50
27619;DHT22;15039;50.830;4.730;2023-06-24T13:52:04;27.80;91.40
27619;DHT22;15039;50.830;4.730;2023-06-24T13:54:30;27.90;91.90
27619;DHT22;15039;50.830;4.730;2023-06-24T13:56:58;28.00;92.20
27619;DHT22;15039;50.830;4.730;2023-06-24T13:59:24;28.00;91.70
27619;DHT22;15039;50.830;4.730;2023-06-24T14:01:49;28.20;91.70
27619;DHT22;15039;50.830;4.730;2023-06-24T14:04:15;28.40;92.40
27619;DHT22;15039;50.830;4.730;2023-06-24T14:06:41;28.60;91.50
27619;DHT22;15039;50.830;4.730;2023-06-24T14:09:08;28.60;91.10
27619;DHT22;15039;50.830;4.730;2023-06-24T14:11:34;28.80;91.70
27619;DHT22;15039;50.830;4.730;2023-06-24T14:14:00;28.90;91.00
27619;DHT22;15039;50.830;4.730;2023-06-24T14:16:25;29.10;91.10
27619;DHT22;15039;50.830;4.730;2023-06-24T14:18:51;29.00;91.20
27619;DHT22;15039;50.830;4.730;2023-06-24T14:21:17;29.00;90.60
27619;DHT22;15039;50.830;4.730;2023-06-24T14:23:42;29.10;90.50
27619;DHT22;15039;50.830;4.730;2023-06-24T14:26:08;28.90;91.70
27619;DHT22;15039;50.830;4.730;2023-06-24T14:28:34;28.90;90.60
27619;DHT22;15039;50.830;4.730;2023-06-24T14:30:59;28.70;91.10
27619;DHT22;15039;50.830;4.730;2023-06-24T14:33:25;28.70;90.40
27619;DHT22;15039;50.830;4.730;2023-06-24T14:35:51;28.80;90.80
27619;DHT22;15039;50.830;4.730;2023-06-24T14:38:17;28.80;91.10
27619;DHT22;15039;50.830;4.730;2023-06-24T14:40:42;29.00;91.40
27619;DHT22;15039;50.830;4.730;2023-06-24T14:43:08;29.20;91.40
27619;DHT22;15039;50.830;4.730;2023-06-24T14:45:36;29.40;91.10
27619;DHT22;15039;50.830;4.730;2023-06-24T14:48:02;29.50;91.00
27619;DHT22;15039;50.830;4.730;2023-06-24T14:50:28;29.60;90.60
27619;DHT22;15039;50.830;4.730;2023-06-24T14:52:53;29.70;90.20
27619;DHT22;15039;50.830;4.730;2023-06-24T14:55:20;29.70;89.60
27619;DHT22;15039;50.830;4.730;2023-06-24T14:57:46;29.30;90.00
27619;DHT22;15039;50.830;4.730;2023-06-24T15:00:12;29.40;90.30
27619;DHT22;15039;50.830;4.730;2023-06-24T15:02:38;29.40;89.70
27619;DHT22;15039;50.830;4.730;2023-06-24T15:05:04;29.30;90.10
27619;DHT22;15039;50.830;4.730;2023-06-24T15:07:29;29.30;89.90
27619;DHT22;15039;50.830;4.730;2023-06-24T15:09:55;29.20;90.40
27619;DHT22;15039;50.830;4.730;2023-06-24T15:12:21;29.20;89.90
27619;DHT22;15039;50.830;4.730;2023-06-24T15:14:46;29.00;89.00
27619;DHT22;15039;50.830;4.730;2023-06-24T15:17:13;29.00;89.30
27619;DHT22;15039;50.830;4.730;2023-06-24T15:19:39;29.00;88.20
27619;DHT22;15039;50.830;4.730;2023-06-24T15:22:05;29.10;89.20
27619;DHT22;15039;50.830;4.730;2023-06-24T15:24:30;29.10;89.20
27619;DHT22;15039;50.830;4.730;2023-06-24T15:26:58;29.10;89.40
27619;DHT22;15039;50.830;4.730;2023-06-24T15:29:25;29.20;89.10
27619;DHT22;15039;50.830;4.730;2023-06-24T15:31:51;29.30;89.80
27619;DHT22;15039;50.830;4.730;2023-06-24T15:34:16;29.50;90.30
27619;DHT22;15039;50.830;4.730;2023-06-24T15:36:42;29.60;89.60
27619;DHT22;15039;50.830;4.730;2023-06-24T15:39:08;29.80;90.10
27619;DHT22;15039;50.830;4.730;2023-06-24T15:41:36;30.00;89.90
27619;DHT22;15039;50.830;4.730;2023-06-24T15:44:04;30.20;89.20
27619;DHT22;15039;50.830;4.730;2023-06-24T15:46:31;30.20;88.60
27619;DHT22;15039;50.830;4.730;2023-06-24T15:48:58;30.20;89.10
27619;DHT22;15039;50.830;4.730;2023-06-24T15:51:24;29.90;89.20
27619;DHT22;15039;50.830;4.730;2023-06-24T15:53:49;29.90;88.30
27619;DHT22;15039;50.830;4.730;2023-06-24T15:56:15;30.10;87.80